This is the latest recevied weather packets stored in our database for station/object OE3XAM-13. If no packets are shown the sender has not sent any weather packets the latest 10 day(s).
| Time | Temp. | Humidity | Pressure | Rain* | Wind** | Luminosity | Snow |
|---|---|---|---|---|---|---|---|
| 1777995688 | 28.33° C | 23% | 968 hPa | 0 mm | - | - | - |
| 1777993888 | 28.33° C | 23% | 968 hPa | 0 mm | - | - | - |
| 1777992088 | 27.78° C | 24% | 968 hPa | 0 mm | - | - | - |
| 1777988488 | 27.78° C | 25% | 969 hPa | 0 mm | - | - | - |
| 1777986688 | 29.44° C | 24% | 969 hPa | 0 mm | - | - | - |
| 1777984888 | 28.89° C | 24% | 970 hPa | 0 mm | - | - | - |
| 1777983088 | 28.89° C | 24% | 970 hPa | 0 mm | - | - | - |
| 1777981288 | 27.78° C | 26% | 971 hPa | 0 mm | - | - | - |
| 1777979488 | 27.22° C | 29% | 970 hPa | 0 mm | - | - | - |
| 1777977688 | 26.67° C | 31% | 971 hPa | 0 mm | - | - | - |
| 1777975888 | 26.11° C | 33% | 971 hPa | 0 mm | - | - | - |
| 1777974088 | 25.56° C | 35% | 972 hPa | 0 mm | - | - | - |
| 1777972288 | 23.89° C | 37% | 972 hPa | 0 mm | - | - | - |
| 1777970488 | 22.78° C | 41% | 972 hPa | 0 mm | - | - | - |
| 1777968688 | 21.11° C | 45% | 973 hPa | 0 mm | - | - | - |
| 1777966888 | 19.44° C | 50% | 973 hPa | 0 mm | - | - | - |
| 1777965088 | 17.22° C | 59% | 972 hPa | 0 mm | - | - | - |
| 1777963288 | 15° C | 68% | 973 hPa | 0 mm | - | - | - |
| 1777961488 | 13.33° C | 73% | 973 hPa | 0 mm | - | - | - |
| 1777959688 | 11.11° C | 78% | 973 hPa | 0 mm | - | - | - |
| 1777957888 | 10.56° C | 78% | 973 hPa | 0 mm | - | - | - |
| 1777956088 | 10° C | 78% | 974 hPa | 0 mm | - | - | - |
| 1777954288 | 10° C | 77% | 973 hPa | 0 mm | - | - | - |
| 1777952488 | 10° C | 77% | 973 hPa | 0 mm | - | - | - |
| 1777950688 | 10.56° C | 75% | 973 hPa | 0 mm | - | - | - |
* Rain latest hour (hover to see other rain measurements)
** Current wind speed in m/s (hover to see current wind gust speed)